sensor_id;sensor_type;location;lat;lon;timestamp;pressure;altitude;pressure_sealevel;temperature;humidity
71907;BME280;59781;52.090;5.030;2023-11-19T00:00:22;100816.25;;;13.39;100.00
71907;BME280;59781;52.090;5.030;2023-11-19T00:02:48;100814.50;;;13.53;100.00
71907;BME280;59781;52.090;5.030;2023-11-19T00:05:14;100817.75;;;13.63;100.00
71907;BME280;59781;52.090;5.030;2023-11-19T00:07:40;100809.56;;;13.57;100.00
71907;BME280;59781;52.090;5.030;2023-11-19T00:10:13;100806.94;;;13.63;100.00
71907;BME280;59781;52.090;5.030;2023-11-19T00:12:45;100810.41;;;13.57;100.00
71907;BME280;59781;52.090;5.030;2023-11-19T00:15:13;100808.22;;;13.67;100.00
71907;BME280;59781;52.090;5.030;2023-11-19T00:17:45;100786.13;;;13.64;100.00
71907;BME280;59781;52.090;5.030;2023-11-19T00:20:16;100791.41;;;13.72;100.00
71907;BME280;59781;52.090;5.030;2023-11-19T00:22:47;100804.84;;;13.65;100.00
71907;BME280;59781;52.090;5.030;2023-11-19T00:25:20;100818.38;;;13.65;100.00
71907;BME280;59781;52.090;5.030;2023-11-19T00:27:50;100809.63;;;13.63;100.00
71907;BME280;59781;52.090;5.030;2023-11-19T00:30:16;100804.50;;;13.68;100.00
71907;BME280;59781;52.090;5.030;2023-11-19T00:32:42;100804.03;;;13.65;100.00
71907;BME280;59781;52.090;5.030;2023-11-19T00:35:09;100798.47;;;13.52;100.00
71907;BME280;59781;52.090;5.030;2023-11-19T00:37:39;100803.44;;;13.48;100.00
71907;BME280;59781;52.090;5.030;2023-11-19T00:40:05;100786.38;;;13.47;100.00
71907;BME280;59781;52.090;5.030;2023-11-19T00:42:32;100787.88;;;13.35;100.00
71907;BME280;59781;52.090;5.030;2023-11-19T00:44:57;100788.34;;;13.39;100.00
71907;BME280;59781;52.090;5.030;2023-11-19T00:47:23;100775.72;;;13.46;100.00
71907;BME280;59781;52.090;5.030;2023-11-19T00:49:49;100779.72;;;13.50;100.00
71907;BME280;59781;52.090;5.030;2023-11-19T00:52:16;100779.41;;;13.38;100.00
71907;BME280;59781;52.090;5.030;2023-11-19T00:54:42;100780.13;;;13.47;100.00
71907;BME280;59781;52.090;5.030;2023-11-19T00:57:08;100787.44;;;13.32;100.00
71907;BME280;59781;52.090;5.030;2023-11-19T00:59:34;100784.72;;;13.32;100.00
71907;BME280;59781;52.090;5.030;2023-11-19T01:02:00;100785.47;;;13.26;100.00
71907;BME280;59781;52.090;5.030;2023-11-19T01:04:33;100779.72;;;13.29;100.00
71907;BME280;59781;52.090;5.030;2023-11-19T01:07:03;100786.38;;;13.47;100.00
71907;BME280;59781;52.090;5.030;2023-11-19T01:09:31;100780.97;;;13.47;100.00
71907;BME280;59781;52.090;5.030;2023-11-19T01:12:01;100766.00;;;13.52;100.00
71907;BME280;59781;52.090;5.030;2023-11-19T01:14:27;100755.31;;;13.43;100.00
71907;BME280;59781;52.090;5.030;2023-11-19T01:16:54;100753.03;;;13.26;100.00
71907;BME280;59781;52.090;5.030;2023-11-19T01:19:21;100744.41;;;13.37;100.00
71907;BME280;59781;52.090;5.030;2023-11-19T01:21:48;100749.38;;;13.33;100.00
71907;BME280;59781;52.090;5.030;2023-11-19T01:24:15;100735.66;;;13.35;100.00
71907;BME280;59781;52.090;5.030;2023-11-19T01:26:41;100745.38;;;13.29;100.00
71907;BME280;59781;52.090;5.030;2023-11-19T01:29:14;100748.72;;;13.31;100.00
71907;BME280;59781;52.090;5.030;2023-11-19T01:31:45;100763.41;;;13.22;100.00
71907;BME280;59781;52.090;5.030;2023-11-19T01:34:12;100753.03;;;13.11;100.00
71907;BME280;59781;52.090;5.030;2023-11-19T01:36:38;100762.44;;;13.15;100.00
71907;BME280;59781;52.090;5.030;2023-11-19T01:39:04;100753.22;;;13.24;100.00
71907;BME280;59781;52.090;5.030;2023-11-19T01:41:36;100751.03;;;13.34;100.00
71907;BME280;59781;52.090;5.030;2023-11-19T01:44:06;100746.41;;;13.28;100.00
71907;BME280;59781;52.090;5.030;2023-11-19T01:46:32;100751.56;;;13.08;100.00
71907;BME280;59781;52.090;5.030;2023-11-19T01:49:00;100754.47;;;12.92;100.00
71907;BME280;59781;52.090;5.030;2023-11-19T01:51:27;100751.66;;;12.85;100.00
71907;BME280;59781;52.090;5.030;2023-11-19T01:53:54;100757.66;;;12.81;100.00
71907;BME280;59781;52.090;5.030;2023-11-19T01:56:24;100769.31;;;12.81;100.00
71907;BME280;59781;52.090;5.030;2023-11-19T01:58:54;100764.56;;;12.69;100.00
71907;BME280;59781;52.090;5.030;2023-11-19T02:01:21;100761.94;;;12.75;100.00
71907;BME280;59781;52.090;5.030;2023-11-19T02:03:47;100757.94;;;12.56;100.00
71907;BME280;59781;52.090;5.030;2023-11-19T02:06:14;100756.81;;;12.66;100.00
71907;BME280;59781;52.090;5.030;2023-11-19T02:08:40;100751.41;;;12.66;100.00
71907;BME280;59781;52.090;5.030;2023-11-19T02:11:07;100744.59;;;12.55;100.00
71907;BME280;59781;52.090;5.030;2023-11-19T02:13:33;100748.72;;;12.51;100.00
71907;BME280;59781;52.090;5.030;2023-11-19T02:16:02;100750.09;;;12.32;100.00
71907;BME280;59781;52.090;5.030;2023-11-19T02:18:29;100757.09;;;12.56;100.00
71907;BME280;59781;52.090;5.030;2023-11-19T02:20:55;100760.63;;;12.56;100.00
71907;BME280;59781;52.090;5.030;2023-11-19T02:23:27;100774.31;;;12.40;100.00
71907;BME280;59781;52.090;5.030;2023-11-19T02:28:36;100767.44;;;12.52;100.00
71907;BME280;59781;52.090;5.030;2023-11-19T02:31:02;100771.44;;;12.42;100.00
71907;BME280;59781;52.090;5.030;2023-11-19T02:33:36;100764.91;;;12.36;100.00
71907;BME280;59781;52.090;5.030;2023-11-19T02:36:04;100757.72;;;12.28;100.00
71907;BME280;59781;52.090;5.030;2023-11-19T02:38:30;100778.03;;;12.24;100.00
71907;BME280;59781;52.090;5.030;2023-11-19T02:40:57;100769.00;;;12.32;100.00
71907;BME280;59781;52.090;5.030;2023-11-19T02:43:22;100755.59;;;12.24;100.00
71907;BME280;59781;52.090;5.030;2023-11-19T02:45:48;100752.53;;;12.42;100.00
71907;BME280;59781;52.090;5.030;2023-11-19T02:48:14;100743.47;;;12.34;100.00
71907;BME280;59781;52.090;5.030;2023-11-19T02:50:44;100743.94;;;12.23;100.00
71907;BME280;59781;52.090;5.030;2023-11-19T02:53:10;100749.19;;;12.40;100.00
71907;BME280;59781;52.090;5.030;2023-11-19T02:55:35;100753.00;;;12.30;100.00
71907;BME280;59781;52.090;5.030;2023-11-19T02:58:04;100749.19;;;12.40;100.00
71907;BME280;59781;52.090;5.030;2023-11-19T03:00:39;100737.72;;;12.23;100.00
71907;BME280;59781;52.090;5.030;2023-11-19T03:03:13;100746.59;;;12.09;100.00
71907;BME280;59781;52.090;5.030;2023-11-19T03:05:47;100746.97;;;12.05;100.00
71907;BME280;59781;52.090;5.030;2023-11-19T03:08:14;100744.97;;;11.85;100.00
71907;BME280;59781;52.090;5.030;2023-11-19T03:10:41;100753.97;;;12.00;100.00
71907;BME280;59781;52.090;5.030;2023-11-19T03:13:11;100752.44;;;11.97;100.00
71907;BME280;59781;52.090;5.030;2023-11-19T03:15:39;100744.22;;;12.14;100.00
71907;BME280;59781;52.090;5.030;2023-11-19T03:18:06;100739.91;;;12.04;100.00
71907;BME280;59781;52.090;5.030;2023-11-19T03:20:32;100731.69;;;11.98;100.00
71907;BME280;59781;52.090;5.030;2023-11-19T03:22:59;100737.09;;;11.98;100.00
71907;BME280;59781;52.090;5.030;2023-11-19T03:25:27;100730.19;;;11.95;100.00
71907;BME280;59781;52.090;5.030;2023-11-19T03:27:59;100743.50;;;11.82;100.00
71907;BME280;59781;52.090;5.030;2023-11-19T03:30:26;100732.31;;;11.85;100.00
71907;BME280;59781;52.090;5.030;2023-11-19T03:32:54;100727.16;;;11.75;100.00
71907;BME280;59781;52.090;5.030;2023-11-19T03:35:21;100716.91;;;11.71;100.00
71907;BME280;59781;52.090;5.030;2023-11-19T03:37:47;100710.47;;;11.80;100.00
71907;BME280;59781;52.090;5.030;2023-11-19T03:40:12;100705.81;;;11.66;100.00
71907;BME280;59781;52.090;5.030;2023-11-19T03:42:38;100722.84;;;11.66;100.00
71907;BME280;59781;52.090;5.030;2023-11-19T03:45:06;100726.78;;;11.56;100.00
71907;BME280;59781;52.090;5.030;2023-11-19T03:47:35;100728.69;;;11.70;100.00
71907;BME280;59781;52.090;5.030;2023-11-19T03:50:02;100731.34;;;11.78;100.00
71907;BME280;59781;52.090;5.030;2023-11-19T03:52:29;100728.34;;;11.73;100.00
71907;BME280;59781;52.090;5.030;2023-11-19T03:54:55;100735.53;;;11.58;100.00
71907;BME280;59781;52.090;5.030;2023-11-19T03:57:23;100733.03;;;11.56;100.00
71907;BME280;59781;52.090;5.030;2023-11-19T03:59:48;100738.00;;;11.44;100.00
71907;BME280;59781;52.090;5.030;2023-11-19T04:02:15;100736.19;;;11.37;100.00
71907;BME280;59781;52.090;5.030;2023-11-19T04:04:41;100742.06;;;11.40;100.00
71907;BME280;59781;52.090;5.030;2023-11-19T04:07:07;100746.56;;;11.48;100.00
71907;BME280;59781;52.090;5.030;2023-11-19T04:09:33;100750.47;;;11.45;100.00
71907;BME280;59781;52.090;5.030;2023-11-19T04:12:00;100749.59;;;11.53;100.00
71907;BME280;59781;52.090;5.030;2023-11-19T04:14:27;100752.47;;;11.52;100.00
71907;BME280;59781;52.090;5.030;2023-11-19T04:16:53;100761.72;;;11.49;100.00
71907;BME280;59781;52.090;5.030;2023-11-19T04:19:19;100763.66;;;11.63;100.00
71907;BME280;59781;52.090;5.030;2023-11-19T04:21:45;100761.56;;;11.51;100.00
71907;BME280;59781;52.090;5.030;2023-11-19T04:24:12;100768.78;;;11.50;100.00
71907;BME280;59781;52.090;5.030;2023-11-19T04:26:43;100764.09;;;11.52;100.00
71907;BME280;59781;52.090;5.030;2023-11-19T04:29:14;100754.97;;;11.53;100.00
71907;BME280;59781;52.090;5.030;2023-11-19T04:31:43;100759.03;;;11.49;100.00
71907;BME280;59781;52.090;5.030;2023-11-19T04:34:12;100753.88;;;11.39;100.00
71907;BME280;59781;52.090;5.030;2023-11-19T04:36:38;100759.81;;;11.58;100.00
71907;BME280;59781;52.090;5.030;2023-11-19T04:39:05;100757.06;;;11.66;100.00
71907;BME280;59781;52.090;5.030;2023-11-19T04:41:35;100757.78;;;11.60;100.00
71907;BME280;59781;52.090;5.030;2023-11-19T04:44:02;100756.28;;;11.57;100.00
71907;BME280;59781;52.090;5.030;2023-11-19T04:46:28;100765.16;;;11.43;100.00
71907;BME280;59781;52.090;5.030;2023-11-19T04:48:53;100756.53;;;11.47;100.00
71907;BME280;59781;52.090;5.030;2023-11-19T04:51:19;100741.31;;;11.55;100.00
71907;BME280;59781;52.090;5.030;2023-11-19T04:53:44;100743.63;;;11.58;100.00
71907;BME280;59781;52.090;5.030;2023-11-19T04:56:11;100737.41;;;11.57;100.00
71907;BME280;59781;52.090;5.030;2023-11-19T04:58:37;100736.13;;;11.68;100.00
71907;BME280;59781;52.090;5.030;2023-11-19T05:01:03;100738.06;;;11.59;100.00
71907;BME280;59781;52.090;5.030;2023-11-19T05:03:32;100739.31;;;11.48;100.00
71907;BME280;59781;52.090;5.030;2023-11-19T05:05:58;100730.09;;;11.43;100.00
71907;BME280;59781;52.090;5.030;2023-11-19T05:08:24;100746.38;;;11.49;100.00
71907;BME280;59781;52.090;5.030;2023-11-19T05:10:50;100746.63;;;11.40;100.00
71907;BME280;59781;52.090;5.030;2023-11-19T05:13:16;100742.19;;;11.47;100.00
71907;BME280;59781;52.090;5.030;2023-11-19T05:15:42;100748.16;;;11.42;100.00
71907;BME280;59781;52.090;5.030;2023-11-19T05:18:08;100740.09;;;11.34;100.00
71907;BME280;59781;52.090;5.030;2023-11-19T05:20:34;100747.34;;;11.57;100.00
71907;BME280;59781;52.090;5.030;2023-11-19T05:23:00;100744.28;;;11.37;100.00
71907;BME280;59781;52.090;5.030;2023-11-19T05:25:26;100737.59;;;11.33;100.00
71907;BME280;59781;52.090;5.030;2023-11-19T05:27:52;100741.00;;;11.27;100.00
71907;BME280;59781;52.090;5.030;2023-11-19T05:30:18;100749.72;;;11.29;100.00
71907;BME280;59781;52.090;5.030;2023-11-19T05:32:44;100753.34;;;11.21;100.00
71907;BME280;59781;52.090;5.030;2023-11-19T05:35:11;100752.75;;;11.34;100.00
71907;BME280;59781;52.090;5.030;2023-11-19T05:37:37;100752.59;;;11.27;100.00
71907;BME280;59781;52.090;5.030;2023-11-19T05:40:04;100755.69;;;11.47;100.00
71907;BME280;59781;52.090;5.030;2023-11-19T05:42:37;100756.72;;;11.15;100.00
71907;BME280;59781;52.090;5.030;2023-11-19T05:45:03;100763.03;;;11.30;100.00
71907;BME280;59781;52.090;5.030;2023-11-19T05:47:29;100768.78;;;11.27;100.00
71907;BME280;59781;52.090;5.030;2023-11-19T05:49:54;100763.03;;;11.30;100.00
71907;BME280;59781;52.090;5.030;2023-11-19T05:52:20;100760.34;;;11.30;100.00
71907;BME280;59781;52.090;5.030;2023-11-19T05:54:47;100758.19;;;11.26;100.00
71907;BME280;59781;52.090;5.030;2023-11-19T05:57:17;100750.84;;;11.42;100.00
71907;BME280;59781;52.090;5.030;2023-11-19T05:59:48;100768.00;;;11.18;100.00
71907;BME280;59781;52.090;5.030;2023-11-19T06:02:13;100767.81;;;11.20;100.00
71907;BME280;59781;52.090;5.030;2023-11-19T06:04:39;100771.81;;;11.32;100.00
71907;BME280;59781;52.090;5.030;2023-11-19T06:07:05;100756.31;;;11.26;100.00
71907;BME280;59781;52.090;5.030;2023-11-19T06:09:30;100749.41;;;11.32;100.00
71907;BME280;59781;52.090;5.030;2023-11-19T06:11:59;100743.50;;;11.28;100.00
71907;BME280;59781;52.090;5.030;2023-11-19T06:14:27;100748.78;;;11.22;100.00
71907;BME280;59781;52.090;5.030;2023-11-19T06:16:53;100733.09;;;11.25;100.00
71907;BME280;59781;52.090;5.030;2023-11-19T06:19:18;100745.09;;;11.14;100.00
71907;BME280;59781;52.090;5.030;2023-11-19T06:21:44;100744.09;;;11.15;100.00
71907;BME280;59781;52.090;5.030;2023-11-19T06:24:10;100749.88;;;11.04;100.00
71907;BME280;59781;52.090;5.030;2023-11-19T06:26:35;100744.88;;;11.24;100.00
71907;BME280;59781;52.090;5.030;2023-11-19T06:29:01;100750.53;;;11.37;100.00
71907;BME280;59781;52.090;5.030;2023-11-19T06:31:27;100758.50;;;11.31;100.00
71907;BME280;59781;52.090;5.030;2023-11-19T06:33:52;100755.16;;;11.20;100.00
71907;BME280;59781;52.090;5.030;2023-11-19T06:36:18;100755.72;;;11.39;100.00
71907;BME280;59781;52.090;5.030;2023-11-19T06:38:44;100758.66;;;11.29;100.00
71907;BME280;59781;52.090;5.030;2023-11-19T06:41:09;100748.56;;;11.31;100.00
71907;BME280;59781;52.090;5.030;2023-11-19T06:43:37;100759.03;;;11.26;100.00
71907;BME280;59781;52.090;5.030;2023-11-19T06:46:03;100759.91;;;11.18;100.00
71907;BME280;59781;52.090;5.030;2023-11-19T06:48:33;100764.81;;;11.15;100.00
71907;BME280;59781;52.090;5.030;2023-11-19T06:51:00;100759.34;;;11.31;100.00
71907;BME280;59781;52.090;5.030;2023-11-19T06:53:26;100761.19;;;11.31;100.00
71907;BME280;59781;52.090;5.030;2023-11-19T06:55:54;100777.84;;;11.34;100.00
71907;BME280;59781;52.090;5.030;2023-11-19T06:58:19;100781.13;;;11.22;100.00
71907;BME280;59781;52.090;5.030;2023-11-19T07:00:45;100776.22;;;11.25;100.00
71907;BME280;59781;52.090;5.030;2023-11-19T07:03:12;100782.81;;;11.23;100.00
71907;BME280;59781;52.090;5.030;2023-11-19T07:05:38;100788.16;;;11.31;100.00
71907;BME280;59781;52.090;5.030;2023-11-19T07:08:05;100779.28;;;11.22;100.00
71907;BME280;59781;52.090;5.030;2023-11-19T07:10:32;100771.84;;;11.24;100.00
71907;BME280;59781;52.090;5.030;2023-11-19T07:12:59;100784.41;;;11.01;100.00
71907;BME280;59781;52.090;5.030;2023-11-19T07:15:25;100782.88;;;11.06;100.00
71907;BME280;59781;52.090;5.030;2023-11-19T07:17:51;100792.97;;;11.12;100.00
71907;BME280;59781;52.090;5.030;2023-11-19T07:20:19;100785.38;;;11.39;100.00
71907;BME280;59781;52.090;5.030;2023-11-19T07:22:45;100792.53;;;11.32;100.00
71907;BME280;59781;52.090;5.030;2023-11-19T07:25:13;100787.56;;;11.43;100.00
71907;BME280;59781;52.090;5.030;2023-11-19T07:27:39;100785.53;;;11.45;100.00
71907;BME280;59781;52.090;5.030;2023-11-19T07:30:05;100787.03;;;11.48;100.00
71907;BME280;59781;52.090;5.030;2023-11-19T07:32:33;100785.25;;;11.63;100.00
71907;BME280;59781;52.090;5.030;2023-11-19T07:34:58;100792.13;;;11.66;100.00
71907;BME280;59781;52.090;5.030;2023-11-19T07:37:24;100797.84;;;11.71;100.00
71907;BME280;59781;52.090;5.030;2023-11-19T07:39:51;100784.75;;;11.60;100.00
71907;BME280;59781;52.090;5.030;2023-11-19T07:42:16;100799.94;;;11.61;100.00
71907;BME280;59781;52.090;5.030;2023-11-19T07:44:43;100794.41;;;11.54;100.00
71907;BME280;59781;52.090;5.030;2023-11-19T07:47:09;100801.38;;;11.71;100.00
71907;BME280;59781;52.090;5.030;2023-11-19T07:49:35;100806.38;;;11.83;100.00
71907;BME280;59781;52.090;5.030;2023-11-19T07:52:01;100796.63;;;11.82;100.00
71907;BME280;59781;52.090;5.030;2023-11-19T07:54:28;100799.63;;;11.78;100.00
71907;BME280;59781;52.090;5.030;2023-11-19T07:56:54;100806.47;;;11.66;100.00
71907;BME280;59781;52.090;5.030;2023-11-19T07:59:20;100806.22;;;11.76;100.00
71907;BME280;59781;52.090;5.030;2023-11-19T08:01:47;100801.09;;;11.89;100.00
71907;BME280;59781;52.090;5.030;2023-11-19T08:04:13;100798.56;;;11.88;100.00
71907;BME280;59781;52.090;5.030;2023-11-19T08:06:39;100803.31;;;11.86;100.00
71907;BME280;59781;52.090;5.030;2023-11-19T08:09:05;100806.03;;;11.77;100.00
71907;BME280;59781;52.090;5.030;2023-11-19T08:11:32;100800.53;;;11.71;100.00
71907;BME280;59781;52.090;5.030;2023-11-19T08:13:59;100809.28;;;11.73;100.00
71907;BME280;59781;52.090;5.030;2023-11-19T08:16:24;100802.41;;;11.70;100.00
71907;BME280;59781;52.090;5.030;2023-11-19T08:18:50;100803.75;;;11.66;100.00
71907;BME280;59781;52.090;5.030;2023-11-19T08:21:16;100811.81;;;11.74;100.00
71907;BME280;59781;52.090;5.030;2023-11-19T08:23:41;100798.47;;;11.50;100.00
71907;BME280;59781;52.090;5.030;2023-11-19T08:26:07;100815.53;;;11.73;100.00
71907;BME280;59781;52.090;5.030;2023-11-19T08:28:34;100811.34;;;11.71;100.00
71907;BME280;59781;52.090;5.030;2023-11-19T08:31:00;100815.50;;;11.51;100.00
71907;BME280;59781;52.090;5.030;2023-11-19T08:33:26;100819.72;;;11.53;100.00
71907;BME280;59781;52.090;5.030;2023-11-19T08:35:52;100819.66;;;11.61;100.00
71907;BME280;59781;52.090;5.030;2023-11-19T08:38:18;100817.13;;;11.60;100.00
71907;BME280;59781;52.090;5.030;2023-11-19T08:40:44;100817.84;;;11.76;100.00
71907;BME280;59781;52.090;5.030;2023-11-19T08:43:09;100822.91;;;11.80;100.00
71907;BME280;59781;52.090;5.030;2023-11-19T08:45:35;100820.97;;;11.65;100.00
71907;BME280;59781;52.090;5.030;2023-11-19T08:48:01;100813.19;;;11.70;100.00
71907;BME280;59781;52.090;5.030;2023-11-19T08:50:27;100818.16;;;11.90;100.00
71907;BME280;59781;52.090;5.030;2023-11-19T08:52:52;100816.94;;;11.92;100.00
71907;BME280;59781;52.090;5.030;2023-11-19T08:55:18;100820.56;;;11.99;100.00
71907;BME280;59781;52.090;5.030;2023-11-19T08:57:44;100816.25;;;12.13;100.00
71907;BME280;59781;52.090;5.030;2023-11-19T09:00:10;100819.59;;;12.00;100.00
71907;BME280;59781;52.090;5.030;2023-11-19T09:02:40;100818.25;;;11.96;100.00
71907;BME280;59781;52.090;5.030;2023-11-19T09:05:06;100813.63;;;12.05;100.00
71907;BME280;59781;52.090;5.030;2023-11-19T09:07:34;100814.09;;;12.09;100.00
71907;BME280;59781;52.090;5.030;2023-11-19T09:10:00;100814.94;;;12.09;100.00
71907;BME280;59781;52.090;5.030;2023-11-19T09:12:26;100812.41;;;12.07;100.00
71907;BME280;59781;52.090;5.030;2023-11-19T09:14:52;100814.72;;;11.96;100.00
71907;BME280;59781;52.090;5.030;2023-11-19T09:17:18;100810.03;;;12.13;100.00
71907;BME280;59781;52.090;5.030;2023-11-19T09:19:44;100808.75;;;12.23;100.00
71907;BME280;59781;52.090;5.030;2023-11-19T09:22:09;100808.88;;;12.30;100.00
71907;BME280;59781;52.090;5.030;2023-11-19T09:24:35;100801.22;;;12.33;100.00
71907;BME280;59781;52.090;5.030;2023-11-19T09:27:01;100798.78;;;12.39;100.00
71907;BME280;59781;52.090;5.030;2023-11-19T09:29:26;100798.34;;;12.35;100.00
71907;BME280;59781;52.090;5.030;2023-11-19T09:31:52;100800.31;;;12.41;100.00
71907;BME280;59781;52.090;5.030;2023-11-19T09:34:17;100809.84;;;12.29;100.00
71907;BME280;59781;52.090;5.030;2023-11-19T09:36:43;100808.06;;;12.59;100.00
71907;BME280;59781;52.090;5.030;2023-11-19T09:39:13;100811.44;;;12.23;100.00
71907;BME280;59781;52.090;5.030;2023-11-19T09:41:44;100810.34;;;12.47;100.00
71907;BME280;59781;52.090;5.030;2023-11-19T09:44:10;100804.13;;;12.76;100.00
71907;BME280;59781;52.090;5.030;2023-11-19T09:46:38;100800.59;;;12.61;100.00
71907;BME280;59781;52.090;5.030;2023-11-19T09:49:08;100794.44;;;12.52;100.00
71907;BME280;59781;52.090;5.030;2023-11-19T09:51:36;100802.44;;;12.46;100.00
71907;BME280;59781;52.090;5.030;2023-11-19T09:54:02;100802.63;;;12.44;100.00
71907;BME280;59781;52.090;5.030;2023-11-19T09:56:29;100799.59;;;12.62;100.00
71907;BME280;59781;52.090;5.030;2023-11-19T09:58:55;100794.81;;;12.64;100.00
71907;BME280;59781;52.090;5.030;2023-11-19T10:01:21;100793.88;;;12.86;100.00
71907;BME280;59781;52.090;5.030;2023-11-19T10:03:48;100784.09;;;13.30;100.00
71907;BME280;59781;52.090;5.030;2023-11-19T10:06:16;100775.59;;;13.75;100.00
71907;BME280;59781;52.090;5.030;2023-11-19T10:08:42;100767.66;;;13.95;100.00
71907;BME280;59781;52.090;5.030;2023-11-19T10:11:09;100769.19;;;13.76;100.00
71907;BME280;59781;52.090;5.030;2023-11-19T10:13:38;100763.56;;;13.78;100.00
71907;BME280;59781;52.090;5.030;2023-11-19T10:16:08;100760.53;;;13.88;100.00
71907;BME280;59781;52.090;5.030;2023-11-19T10:18:37;100760.75;;;14.14;100.00
71907;BME280;59781;52.090;5.030;2023-11-19T10:21:05;100749.22;;;14.61;100.00
71907;BME280;59781;52.090;5.030;2023-11-19T10:23:31;100747.63;;;14.74;100.00
71907;BME280;59781;52.090;5.030;2023-11-19T10:26:12;100746.28;;;14.56;100.00
71907;BME280;59781;52.090;5.030;2023-11-19T10:28:41;100753.69;;;13.92;100.00
71907;BME280;59781;52.090;5.030;2023-11-19T10:31:19;100750.38;;;13.68;100.00
71907;BME280;59781;52.090;5.030;2023-11-19T10:33:50;100755.44;;;14.27;100.00
71907;BME280;59781;52.090;5.030;2023-11-19T10:36:16;100750.03;;;14.27;100.00
71907;BME280;59781;52.090;5.030;2023-11-19T10:38:56;100746.50;;;14.61;100.00
71907;BME280;59781;52.090;5.030;2023-11-19T10:41:30;100739.53;;;14.80;100.00
71907;BME280;59781;52.090;5.030;2023-11-19T10:43:57;100751.75;;;15.11;100.00
71907;BME280;59781;52.090;5.030;2023-11-19T10:46:39;100739.84;;;14.57;100.00
71907;BME280;59781;52.090;5.030;2023-11-19T10:49:08;100737.13;;;14.57;100.00
71907;BME280;59781;52.090;5.030;2023-11-19T10:51:35;100742.97;;;14.61;100.00
71907;BME280;59781;52.090;5.030;2023-11-19T10:54:05;100744.63;;;14.62;100.00
71907;BME280;59781;52.090;5.030;2023-11-19T10:56:33;100744.72;;;14.75;100.00
71907;BME280;59781;52.090;5.030;2023-11-19T10:59:00;100758.50;;;14.80;100.00
71907;BME280;59781;52.090;5.030;2023-11-19T11:01:33;100755.31;;;14.35;100.00
71907;BME280;59781;52.090;5.030;2023-11-19T11:04:13;100752.25;;;14.17;100.00
71907;BME280;59781;52.090;5.030;2023-11-19T11:06:47;100751.00;;;14.20;100.00
71907;BME280;59781;52.090;5.030;2023-11-19T11:09:14;100760.03;;;13.77;100.00
71907;BME280;59781;52.090;5.030;2023-11-19T11:11:40;100742.88;;;14.20;100.00
71907;BME280;59781;52.090;5.030;2023-11-19T11:14:12;100742.59;;;14.71;100.00
71907;BME280;59781;52.090;5.030;2023-11-19T11:16:43;100741.56;;;14.37;100.00
71907;BME280;59781;52.090;5.030;2023-11-19T11:19:11;100743.75;;;13.99;100.00
71907;BME280;59781;52.090;5.030;2023-11-19T11:21:42;100732.91;;;13.71;100.00
71907;BME280;59781;52.090;5.030;2023-11-19T11:27:51;100736.31;;;13.58;100.00
71907;BME280;59781;52.090;5.030;2023-11-19T11:30:35;100731.28;;;14.04;100.00
71907;BME280;59781;52.090;5.030;2023-11-19T11:36:17;100736.50;;;13.78;100.00
71907;BME280;59781;52.090;5.030;2023-11-19T11:38:48;100734.91;;;13.62;100.00
71907;BME280;59781;52.090;5.030;2023-11-19T11:41:19;100734.66;;;13.57;100.00
71907;BME280;59781;52.090;5.030;2023-11-19T11:49:00;100720.44;;;13.98;100.00
71907;BME280;59781;52.090;5.030;2023-11-19T11:57:08;100720.19;;;13.71;100.00
71907;BME280;59781;52.090;5.030;2023-11-19T11:59:46;100720.91;;;13.80;100.00
71907;BME280;59781;52.090;5.030;2023-11-19T12:02:18;100714.19;;;13.97;100.00
71907;BME280;59781;52.090;5.030;2023-11-19T12:04:49;100705.22;;;13.97;100.00
71907;BME280;59781;52.090;5.030;2023-11-19T12:07:21;100703.97;;;14.27;100.00
71907;BME280;59781;52.090;5.030;2023-11-19T12:09:52;100703.53;;;14.24;100.00
71907;BME280;59781;52.090;5.030;2023-11-19T12:12:32;100700.81;;;14.24;100.00
71907;BME280;59781;52.090;5.030;2023-11-19T12:20:04;100721.47;;;13.97;100.00
71907;BME280;59781;52.090;5.030;2023-11-19T12:22:44;100714.25;;;14.39;100.00
71907;BME280;59781;52.090;5.030;2023-11-19T12:25:12;100718.78;;;14.31;100.00
71907;BME280;59781;52.090;5.030;2023-11-19T12:27:44;100713.41;;;14.38;100.00
71907;BME280;59781;52.090;5.030;2023-11-19T12:30:11;100709.97;;;14.23;100.00
71907;BME280;59781;52.090;5.030;2023-11-19T12:32:44;100716.69;;;14.27;100.00
71907;BME280;59781;52.090;5.030;2023-11-19T12:35:12;100715.88;;;14.05;100.00
71907;BME280;59781;52.090;5.030;2023-11-19T12:40:22;100708.06;;;13.89;100.00
71907;BME280;59781;52.090;5.030;2023-11-19T12:42:50;100706.78;;;13.85;100.00
71907;BME280;59781;52.090;5.030;2023-11-19T12:45:20;100704.66;;;13.80;100.00
71907;BME280;59781;52.090;5.030;2023-11-19T12:47:47;100712.53;;;13.75;100.00
71907;BME280;59781;52.090;5.030;2023-11-19T12:50:15;100697.41;;;13.59;100.00
71907;BME280;59781;52.090;5.030;2023-11-19T12:52:55;100705.44;;;13.53;100.00
71907;BME280;59781;52.090;5.030;2023-11-19T12:55:27;100702.31;;;13.49;100.00
71907;BME280;59781;52.090;5.030;2023-11-19T12:57:54;100707.13;;;13.54;100.00
71907;BME280;59781;52.090;5.030;2023-11-19T13:00:23;100703.34;;;13.48;100.00
71907;BME280;59781;52.090;5.030;2023-11-19T13:02:52;100704.81;;;13.51;100.00
71907;BME280;59781;52.090;5.030;2023-11-19T13:05:26;100700.13;;;13.38;100.00
71907;BME280;59781;52.090;5.030;2023-11-19T13:08:02;100703.59;;;13.53;100.00
71907;BME280;59781;52.090;5.030;2023-11-19T13:10:31;100700.38;;;13.92;100.00